Daily Tweet Dump

19:02 Duluth Weather Fun!
KDYT 202154Z AUTO 05008KT 341V131 10SM CLR 08/05 A2960 | KDYT 202214Z AUTO 22027G37KT 7SM CLR 30/07 A2958

23:27 Efficient/dense enterprise server from Dell. Me wants. bit.ly/N3RWg

Daily Tweet Dump

10:02 I escaped the Kenosha C.H.U.D.S. Walking along the Pike River delta along Lake Michigan, and I was sucked down to my knees in the sand.

00:49 janiston’s status on Monday, 18-May-09 04:51:28 UTC